sensor_id;sensor_type;location;lat;lon;timestamp;temperature;humidity
19389;DHT22;9830;41.876;23.474;2023-03-11T00:00:39;7.30;99.90
19389;DHT22;9830;41.876;23.474;2023-03-11T00:03:06;7.40;99.90
19389;DHT22;9830;41.876;23.474;2023-03-11T00:05:34;7.40;99.90
19389;DHT22;9830;41.876;23.474;2023-03-11T00:08:01;7.30;99.90
19389;DHT22;9830;41.876;23.474;2023-03-11T00:10:32;7.30;99.90
19389;DHT22;9830;41.876;23.474;2023-03-11T00:12:59;7.30;99.90
19389;DHT22;9830;41.876;23.474;2023-03-11T00:15:26;7.30;99.90
19389;DHT22;9830;41.876;23.474;2023-03-11T00:17:52;7.30;99.90
19389;DHT22;9830;41.876;23.474;2023-03-11T00:20:24;7.30;99.90
19389;DHT22;9830;41.876;23.474;2023-03-11T00:22:50;7.40;99.90
19389;DHT22;9830;41.876;23.474;2023-03-11T00:25:18;7.40;99.90
19389;DHT22;9830;41.876;23.474;2023-03-11T00:27:43;7.30;99.90
19389;DHT22;9830;41.876;23.474;2023-03-11T00:30:11;7.30;99.90
19389;DHT22;9830;41.876;23.474;2023-03-11T00:32:37;7.30;99.90
19389;DHT22;9830;41.876;23.474;2023-03-11T00:35:03;7.40;99.90
19389;DHT22;9830;41.876;23.474;2023-03-11T00:37:29;7.60;99.90
19389;DHT22;9830;41.876;23.474;2023-03-11T00:39:55;7.80;99.90
19389;DHT22;9830;41.876;23.474;2023-03-11T00:42:21;7.80;99.90
19389;DHT22;9830;41.876;23.474;2023-03-11T00:44:46;7.60;99.90
19389;DHT22;9830;41.876;23.474;2023-03-11T00:47:12;7.50;99.90
19389;DHT22;9830;41.876;23.474;2023-03-11T00:49:38;7.30;99.90
19389;DHT22;9830;41.876;23.474;2023-03-11T00:52:04;7.20;99.90
19389;DHT22;9830;41.876;23.474;2023-03-11T00:54:30;7.20;99.90
19389;DHT22;9830;41.876;23.474;2023-03-11T00:56:56;7.10;99.90
19389;DHT22;9830;41.876;23.474;2023-03-11T00:59:22;7.10;99.90
19389;DHT22;9830;41.876;23.474;2023-03-11T01:01:47;7.10;99.90
19389;DHT22;9830;41.876;23.474;2023-03-11T01:04:13;7.10;99.90
19389;DHT22;9830;41.876;23.474;2023-03-11T01:06:39;7.20;99.90
19389;DHT22;9830;41.876;23.474;2023-03-11T01:09:04;7.20;99.90
19389;DHT22;9830;41.876;23.474;2023-03-11T01:11:30;7.20;99.90
19389;DHT22;9830;41.876;23.474;2023-03-11T01:13:56;7.30;99.90
19389;DHT22;9830;41.876;23.474;2023-03-11T01:16:22;7.30;99.90
19389;DHT22;9830;41.876;23.474;2023-03-11T01:18:47;7.30;99.90
19389;DHT22;9830;41.876;23.474;2023-03-11T01:21:13;7.30;99.90
19389;DHT22;9830;41.876;23.474;2023-03-11T01:23:40;7.30;99.90
19389;DHT22;9830;41.876;23.474;2023-03-11T01:26:06;7.30;99.90
19389;DHT22;9830;41.876;23.474;2023-03-11T01:28:32;7.30;99.90
19389;DHT22;9830;41.876;23.474;2023-03-11T01:30:57;7.20;99.90
19389;DHT22;9830;41.876;23.474;2023-03-11T01:33:23;7.20;99.90
19389;DHT22;9830;41.876;23.474;2023-03-11T01:35:49;7.20;99.90
19389;DHT22;9830;41.876;23.474;2023-03-11T01:38:14;7.10;99.90
19389;DHT22;9830;41.876;23.474;2023-03-11T01:40:47;7.10;99.90
19389;DHT22;9830;41.876;23.474;2023-03-11T01:43:40;7.00;99.90
19389;DHT22;9830;41.876;23.474;2023-03-11T01:46:26;7.00;99.90
19389;DHT22;9830;41.876;23.474;2023-03-11T01:48:57;7.00;99.90
19389;DHT22;9830;41.876;23.474;2023-03-11T01:51:44;7.00;99.90
19389;DHT22;9830;41.876;23.474;2023-03-11T01:56:44;6.80;99.90
19389;DHT22;9830;41.876;23.474;2023-03-11T01:59:13;6.70;99.90
19389;DHT22;9830;41.876;23.474;2023-03-11T02:04:33;6.70;99.90
19389;DHT22;9830;41.876;23.474;2023-03-11T02:07:00;6.70;99.90
19389;DHT22;9830;41.876;23.474;2023-03-11T02:09:26;6.60;99.90
19389;DHT22;9830;41.876;23.474;2023-03-11T02:11:52;6.60;99.90
19389;DHT22;9830;41.876;23.474;2023-03-11T02:14:19;6.60;99.90
19389;DHT22;9830;41.876;23.474;2023-03-11T02:16:44;6.50;99.90
19389;DHT22;9830;41.876;23.474;2023-03-11T02:19:28;6.50;99.90
19389;DHT22;9830;41.876;23.474;2023-03-11T02:21:56;6.40;99.90
19389;DHT22;9830;41.876;23.474;2023-03-11T02:24:34;6.40;99.90
19389;DHT22;9830;41.876;23.474;2023-03-11T02:27:11;6.40;99.90
19389;DHT22;9830;41.876;23.474;2023-03-11T02:29:38;6.30;99.90
19389;DHT22;9830;41.876;23.474;2023-03-11T02:32:07;6.30;99.90
19389;DHT22;9830;41.876;23.474;2023-03-11T02:34:37;6.30;99.90
19389;DHT22;9830;41.876;23.474;2023-03-11T02:37:05;6.20;99.90
19389;DHT22;9830;41.876;23.474;2023-03-11T02:39:40;6.20;99.90
19389;DHT22;9830;41.876;23.474;2023-03-11T02:44:46;6.10;99.90
19389;DHT22;9830;41.876;23.474;2023-03-11T02:47:14;6.10;99.90
19389;DHT22;9830;41.876;23.474;2023-03-11T02:49:41;6.00;99.90
19389;DHT22;9830;41.876;23.474;2023-03-11T02:52:06;6.00;99.90
19389;DHT22;9830;41.876;23.474;2023-03-11T02:54:32;5.90;99.90
19389;DHT22;9830;41.876;23.474;2023-03-11T02:56:58;5.90;99.90
19389;DHT22;9830;41.876;23.474;2023-03-11T02:59:23;5.90;99.90
19389;DHT22;9830;41.876;23.474;2023-03-11T03:01:49;5.90;99.90
19389;DHT22;9830;41.876;23.474;2023-03-11T03:04:15;5.80;99.90
19389;DHT22;9830;41.876;23.474;2023-03-11T03:06:40;5.90;99.90
19389;DHT22;9830;41.876;23.474;2023-03-11T03:09:06;5.90;99.90
19389;DHT22;9830;41.876;23.474;2023-03-11T03:11:32;5.80;99.90
19389;DHT22;9830;41.876;23.474;2023-03-11T03:13:57;5.80;99.90
19389;DHT22;9830;41.876;23.474;2023-03-11T03:16:23;5.80;99.90
19389;DHT22;9830;41.876;23.474;2023-03-11T03:18:48;5.80;99.90
19389;DHT22;9830;41.876;23.474;2023-03-11T03:21:14;5.80;99.90
19389;DHT22;9830;41.876;23.474;2023-03-11T03:23:40;5.80;99.90
19389;DHT22;9830;41.876;23.474;2023-03-11T03:26:05;5.80;99.90
19389;DHT22;9830;41.876;23.474;2023-03-11T03:28:31;5.70;99.90
19389;DHT22;9830;41.876;23.474;2023-03-11T03:31:08;5.80;99.90
19389;DHT22;9830;41.876;23.474;2023-03-11T03:33:34;5.80;99.90
19389;DHT22;9830;41.876;23.474;2023-03-11T03:36:00;5.90;99.90
19389;DHT22;9830;41.876;23.474;2023-03-11T03:38:25;6.00;99.90
19389;DHT22;9830;41.876;23.474;2023-03-11T03:40:51;6.10;99.90
19389;DHT22;9830;41.876;23.474;2023-03-11T03:43:17;6.10;99.90
19389;DHT22;9830;41.876;23.474;2023-03-11T03:45:42;6.10;99.90
19389;DHT22;9830;41.876;23.474;2023-03-11T03:48:08;6.10;99.90
19389;DHT22;9830;41.876;23.474;2023-03-11T03:50:34;6.20;99.90
19389;DHT22;9830;41.876;23.474;2023-03-11T03:52:59;6.20;99.90
19389;DHT22;9830;41.876;23.474;2023-03-11T03:55:25;6.20;99.90
19389;DHT22;9830;41.876;23.474;2023-03-11T03:57:51;6.30;99.90
19389;DHT22;9830;41.876;23.474;2023-03-11T04:00:17;6.30;99.90
19389;DHT22;9830;41.876;23.474;2023-03-11T04:02:43;6.20;99.90
19389;DHT22;9830;41.876;23.474;2023-03-11T04:05:09;6.20;99.90
19389;DHT22;9830;41.876;23.474;2023-03-11T04:07:35;6.20;99.90
19389;DHT22;9830;41.876;23.474;2023-03-11T04:10:01;6.20;99.90
19389;DHT22;9830;41.876;23.474;2023-03-11T04:12:27;6.20;99.90
19389;DHT22;9830;41.876;23.474;2023-03-11T04:14:52;6.20;99.90
19389;DHT22;9830;41.876;23.474;2023-03-11T04:17:18;6.30;99.90
19389;DHT22;9830;41.876;23.474;2023-03-11T04:19:44;6.20;99.90
19389;DHT22;9830;41.876;23.474;2023-03-11T04:22:10;6.20;99.90
19389;DHT22;9830;41.876;23.474;2023-03-11T04:24:35;6.20;99.90
19389;DHT22;9830;41.876;23.474;2023-03-11T04:27:01;6.10;99.90
19389;DHT22;9830;41.876;23.474;2023-03-11T04:29:27;6.10;99.90
19389;DHT22;9830;41.876;23.474;2023-03-11T04:31:53;6.00;99.90
19389;DHT22;9830;41.876;23.474;2023-03-11T04:34:18;6.00;99.90
19389;DHT22;9830;41.876;23.474;2023-03-11T04:36:44;6.00;99.90
19389;DHT22;9830;41.876;23.474;2023-03-11T04:39:10;5.90;99.90
19389;DHT22;9830;41.876;23.474;2023-03-11T04:41:36;5.90;99.90
19389;DHT22;9830;41.876;23.474;2023-03-11T04:44:01;5.90;99.90
19389;DHT22;9830;41.876;23.474;2023-03-11T04:46:27;5.90;99.90
19389;DHT22;9830;41.876;23.474;2023-03-11T04:48:53;5.90;99.90
19389;DHT22;9830;41.876;23.474;2023-03-11T04:51:18;5.90;99.90
19389;DHT22;9830;41.876;23.474;2023-03-11T04:53:44;5.90;99.90
19389;DHT22;9830;41.876;23.474;2023-03-11T04:56:10;5.90;99.90
19389;DHT22;9830;41.876;23.474;2023-03-11T04:58:35;5.90;99.90
19389;DHT22;9830;41.876;23.474;2023-03-11T05:01:01;5.90;99.90
19389;DHT22;9830;41.876;23.474;2023-03-11T05:03:27;5.90;99.90
19389;DHT22;9830;41.876;23.474;2023-03-11T05:05:52;5.90;99.90
19389;DHT22;9830;41.876;23.474;2023-03-11T05:08:24;6.00;99.90
19389;DHT22;9830;41.876;23.474;2023-03-11T05:10:50;6.10;99.90
19389;DHT22;9830;41.876;23.474;2023-03-11T05:13:18;6.10;99.90
19389;DHT22;9830;41.876;23.474;2023-03-11T05:15:45;6.00;99.90
19389;DHT22;9830;41.876;23.474;2023-03-11T05:18:11;6.10;99.90
19389;DHT22;9830;41.876;23.474;2023-03-11T05:20:36;6.00;99.90
19389;DHT22;9830;41.876;23.474;2023-03-11T05:23:03;6.00;99.90
19389;DHT22;9830;41.876;23.474;2023-03-11T05:25:30;6.00;99.90
19389;DHT22;9830;41.876;23.474;2023-03-11T05:27:55;6.10;99.90
19389;DHT22;9830;41.876;23.474;2023-03-11T05:30:21;6.10;99.90
19389;DHT22;9830;41.876;23.474;2023-03-11T05:32:47;6.20;99.90
19389;DHT22;9830;41.876;23.474;2023-03-11T05:35:13;6.20;99.90
19389;DHT22;9830;41.876;23.474;2023-03-11T05:37:39;6.30;99.90
19389;DHT22;9830;41.876;23.474;2023-03-11T05:40:06;6.40;99.90
19389;DHT22;9830;41.876;23.474;2023-03-11T05:42:33;6.40;99.90
19389;DHT22;9830;41.876;23.474;2023-03-11T05:44:59;6.50;99.90
19389;DHT22;9830;41.876;23.474;2023-03-11T05:47:25;6.50;99.90
19389;DHT22;9830;41.876;23.474;2023-03-11T05:49:50;6.60;99.90
19389;DHT22;9830;41.876;23.474;2023-03-11T05:52:16;6.70;99.90
19389;DHT22;9830;41.876;23.474;2023-03-11T05:54:42;6.80;99.90
19389;DHT22;9830;41.876;23.474;2023-03-11T05:57:07;7.10;99.90
19389;DHT22;9830;41.876;23.474;2023-03-11T05:59:34;7.40;99.90
19389;DHT22;9830;41.876;23.474;2023-03-11T06:02:00;7.90;99.90
19389;DHT22;9830;41.876;23.474;2023-03-11T06:04:26;9.10;99.90
19389;DHT22;9830;41.876;23.474;2023-03-11T06:06:53;10.20;99.90
19389;DHT22;9830;41.876;23.474;2023-03-11T06:09:19;10.60;99.90
19389;DHT22;9830;41.876;23.474;2023-03-11T06:11:44;10.80;99.90
19389;DHT22;9830;41.876;23.474;2023-03-11T06:14:12;11.60;99.90
19389;DHT22;9830;41.876;23.474;2023-03-11T06:16:38;13.10;99.90
19389;DHT22;9830;41.876;23.474;2023-03-11T06:19:03;14.00;99.90
19389;DHT22;9830;41.876;23.474;2023-03-11T06:21:29;14.30;99.90
19389;DHT22;9830;41.876;23.474;2023-03-11T06:23:55;14.40;99.90
19389;DHT22;9830;41.876;23.474;2023-03-11T06:26:22;15.50;99.90
19389;DHT22;9830;41.876;23.474;2023-03-11T06:28:49;16.20;99.70
19389;DHT22;9830;41.876;23.474;2023-03-11T06:31:21;16.80;96.70
19389;DHT22;9830;41.876;23.474;2023-03-11T06:33:50;17.20;93.50
19389;DHT22;9830;41.876;23.474;2023-03-11T06:36:17;18.20;80.50
19389;DHT22;9830;41.876;23.474;2023-03-11T06:38:43;18.10;73.50
19389;DHT22;9830;41.876;23.474;2023-03-11T06:41:09;17.40;77.50
19389;DHT22;9830;41.876;23.474;2023-03-11T06:43:35;16.80;82.90
19389;DHT22;9830;41.876;23.474;2023-03-11T06:46:06;15.30;90.10
19389;DHT22;9830;41.876;23.474;2023-03-11T06:48:32;14.10;95.90
19389;DHT22;9830;41.876;23.474;2023-03-11T06:50:59;13.10;99.90
19389;DHT22;9830;41.876;23.474;2023-03-11T06:53:28;12.70;99.90
19389;DHT22;9830;41.876;23.474;2023-03-11T06:56:12;12.30;99.90
19389;DHT22;9830;41.876;23.474;2023-03-11T06:58:39;12.10;99.90
19389;DHT22;9830;41.876;23.474;2023-03-11T07:01:09;12.20;99.90
19389;DHT22;9830;41.876;23.474;2023-03-11T07:03:35;13.00;99.90
19389;DHT22;9830;41.876;23.474;2023-03-11T07:06:00;14.40;97.60
19389;DHT22;9830;41.876;23.474;2023-03-11T07:08:27;14.90;94.60
19389;DHT22;9830;41.876;23.474;2023-03-11T07:13:32;16.30;89.60
19389;DHT22;9830;41.876;23.474;2023-03-11T07:16:07;16.80;81.80
19389;DHT22;9830;41.876;23.474;2023-03-11T07:18:34;17.40;72.20
19389;DHT22;9830;41.876;23.474;2023-03-11T07:21:04;16.50;76.20
19389;DHT22;9830;41.876;23.474;2023-03-11T07:23:30;16.20;84.70
19389;DHT22;9830;41.876;23.474;2023-03-11T07:25:55;16.60;82.10
19389;DHT22;9830;41.876;23.474;2023-03-11T07:28:22;17.30;71.50
19389;DHT22;9830;41.876;23.474;2023-03-11T07:30:48;18.40;69.10
19389;DHT22;9830;41.876;23.474;2023-03-11T07:33:15;18.00;65.10
19389;DHT22;9830;41.876;23.474;2023-03-11T07:35:41;17.70;67.20
19389;DHT22;9830;41.876;23.474;2023-03-11T07:38:06;17.20;69.40
19389;DHT22;9830;41.876;23.474;2023-03-11T07:40:32;17.40;71.50
19389;DHT22;9830;41.876;23.474;2023-03-11T07:42:58;17.40;65.10
19389;DHT22;9830;41.876;23.474;2023-03-11T07:45:24;17.10;70.20
19389;DHT22;9830;41.876;23.474;2023-03-11T07:47:49;16.90;70.50
19389;DHT22;9830;41.876;23.474;2023-03-11T07:50:15;17.90;65.50
19389;DHT22;9830;41.876;23.474;2023-03-11T07:52:42;17.70;63.90
19389;DHT22;9830;41.876;23.474;2023-03-11T07:55:08;18.00;64.20
19389;DHT22;9830;41.876;23.474;2023-03-11T07:57:34;17.90;64.10
19389;DHT22;9830;41.876;23.474;2023-03-11T07:59:59;18.10;67.60
19389;DHT22;9830;41.876;23.474;2023-03-11T08:02:25;18.90;64.10
19389;DHT22;9830;41.876;23.474;2023-03-11T08:04:51;19.00;60.00
19389;DHT22;9830;41.876;23.474;2023-03-11T08:07:17;19.30;58.50
19389;DHT22;9830;41.876;23.474;2023-03-11T08:09:43;19.80;57.60
19389;DHT22;9830;41.876;23.474;2023-03-11T08:12:08;19.60;57.00
19389;DHT22;9830;41.876;23.474;2023-03-11T08:14:34;19.60;58.00
19389;DHT22;9830;41.876;23.474;2023-03-11T08:17:00;19.50;57.80
19389;DHT22;9830;41.876;23.474;2023-03-11T08:19:25;19.40;58.50
19389;DHT22;9830;41.876;23.474;2023-03-11T08:21:51;19.80;57.20
19389;DHT22;9830;41.876;23.474;2023-03-11T08:24:17;20.20;55.20
19389;DHT22;9830;41.876;23.474;2023-03-11T08:26:42;20.50;54.20
19389;DHT22;9830;41.876;23.474;2023-03-11T08:29:08;20.30;52.50
19389;DHT22;9830;41.876;23.474;2023-03-11T08:31:34;20.90;53.30
19389;DHT22;9830;41.876;23.474;2023-03-11T08:34:03;21.30;50.50
19389;DHT22;9830;41.876;23.474;2023-03-11T08:36:29;21.30;50.40
19389;DHT22;9830;41.876;23.474;2023-03-11T08:38:55;22.10;49.70
19389;DHT22;9830;41.876;23.474;2023-03-11T08:41:21;22.40;47.90
19389;DHT22;9830;41.876;23.474;2023-03-11T08:43:47;22.10;45.30
19389;DHT22;9830;41.876;23.474;2023-03-11T08:46:18;21.90;48.20
19389;DHT22;9830;41.876;23.474;2023-03-11T08:48:45;22.10;46.00
19389;DHT22;9830;41.876;23.474;2023-03-11T08:51:12;21.20;45.80
19389;DHT22;9830;41.876;23.474;2023-03-11T08:53:38;19.50;51.10
19389;DHT22;9830;41.876;23.474;2023-03-11T08:56:04;19.90;52.50
19389;DHT22;9830;41.876;23.474;2023-03-11T08:58:30;20.50;53.30
19389;DHT22;9830;41.876;23.474;2023-03-11T09:00:56;21.40;47.70
19389;DHT22;9830;41.876;23.474;2023-03-11T09:03:21;22.00;45.30
19389;DHT22;9830;41.876;23.474;2023-03-11T09:05:47;21.90;46.00
19389;DHT22;9830;41.876;23.474;2023-03-11T09:08:13;22.50;44.30
19389;DHT22;9830;41.876;23.474;2023-03-11T09:10:39;22.70;44.60
19389;DHT22;9830;41.876;23.474;2023-03-11T09:13:05;23.30;42.70
19389;DHT22;9830;41.876;23.474;2023-03-11T09:15:31;22.90;41.70
19389;DHT22;9830;41.876;23.474;2023-03-11T09:17:56;22.80;41.70
19389;DHT22;9830;41.876;23.474;2023-03-11T09:20:22;22.60;42.70
19389;DHT22;9830;41.876;23.474;2023-03-11T09:22:48;22.50;44.00
19389;DHT22;9830;41.876;23.474;2023-03-11T09:25:14;22.30;42.00
19389;DHT22;9830;41.876;23.474;2023-03-11T09:27:39;22.30;42.90
19389;DHT22;9830;41.876;23.474;2023-03-11T09:30:06;22.40;42.60
19389;DHT22;9830;41.876;23.474;2023-03-11T09:32:32;22.50;41.40
19389;DHT22;9830;41.876;23.474;2023-03-11T09:34:58;22.40;42.20
19389;DHT22;9830;41.876;23.474;2023-03-11T09:37:24;21.60;41.90
19389;DHT22;9830;41.876;23.474;2023-03-11T09:39:51;21.50;42.80
19389;DHT22;9830;41.876;23.474;2023-03-11T09:42:40;22.10;42.10
19389;DHT22;9830;41.876;23.474;2023-03-11T09:45:20;22.30;42.40
19389;DHT22;9830;41.876;23.474;2023-03-11T09:50:31;23.10;39.60
19389;DHT22;9830;41.876;23.474;2023-03-11T09:53:28;22.50;42.00
19389;DHT22;9830;41.876;23.474;2023-03-11T09:55:59;21.70;42.60
19389;DHT22;9830;41.876;23.474;2023-03-11T09:58:42;22.40;42.70
19389;DHT22;9830;41.876;23.474;2023-03-11T10:03:44;21.40;41.80
19389;DHT22;9830;41.876;23.474;2023-03-11T10:08:48;22.40;41.20
19389;DHT22;9830;41.876;23.474;2023-03-11T10:14:40;22.60;37.20
19389;DHT22;9830;41.876;23.474;2023-03-11T10:28:53;23.50;39.40
19389;DHT22;9830;41.876;23.474;2023-03-11T10:31:34;22.20;38.40
19389;DHT22;9830;41.876;23.474;2023-03-11T10:37:32;19.50;43.40
19389;DHT22;9830;41.876;23.474;2023-03-11T10:40:29;18.50;44.00
19389;DHT22;9830;41.876;23.474;2023-03-11T10:42:58;17.40;48.90
19389;DHT22;9830;41.876;23.474;2023-03-11T10:45:26;18.70;45.50
19389;DHT22;9830;41.876;23.474;2023-03-11T10:47:55;17.70;47.60
19389;DHT22;9830;41.876;23.474;2023-03-11T10:50:22;16.70;57.00
19389;DHT22;9830;41.876;23.474;2023-03-11T10:53:09;17.20;56.30
19389;DHT22;9830;41.876;23.474;2023-03-11T10:55:45;17.30;68.80
19389;DHT22;9830;41.876;23.474;2023-03-11T10:58:14;17.10;72.50
19389;DHT22;9830;41.876;23.474;2023-03-11T11:00:40;15.70;89.20
19389;DHT22;9830;41.876;23.474;2023-03-11T11:03:23;13.80;96.60
19389;DHT22;9830;41.876;23.474;2023-03-11T11:06:05;13.60;99.90
19389;DHT22;9830;41.876;23.474;2023-03-11T11:08:32;13.00;99.90
19389;DHT22;9830;41.876;23.474;2023-03-11T11:11:00;12.20;99.90
19389;DHT22;9830;41.876;23.474;2023-03-11T11:13:32;11.80;99.90
19389;DHT22;9830;41.876;23.474;2023-03-11T11:16:17;11.60;99.90
19389;DHT22;9830;41.876;23.474;2023-03-11T11:18:50;11.90;99.90
19389;DHT22;9830;41.876;23.474;2023-03-11T11:21:31;12.60;99.90
19389;DHT22;9830;41.876;23.474;2023-03-11T11:27:11;13.10;99.90
19389;DHT22;9830;41.876;23.474;2023-03-11T11:29:39;13.00;99.90
19389;DHT22;9830;41.876;23.474;2023-03-11T11:35:03;12.70;99.90
19389;DHT22;9830;41.876;23.474;2023-03-11T11:37:32;12.80;99.90
19389;DHT22;9830;41.876;23.474;2023-03-11T11:40:23;13.00;99.90
19389;DHT22;9830;41.876;23.474;2023-03-11T11:42:58;13.20;99.90
19389;DHT22;9830;41.876;23.474;2023-03-11T11:45:43;13.30;99.90
19389;DHT22;9830;41.876;23.474;2023-03-11T11:48:23;13.30;99.90
19389;DHT22;9830;41.876;23.474;2023-03-11T11:50:59;13.50;99.90
19389;DHT22;9830;41.876;23.474;2023-03-11T11:55:55;14.10;99.80
19389;DHT22;9830;41.876;23.474;2023-03-11T11:58:21;13.90;98.20
19389;DHT22;9830;41.876;23.474;2023-03-11T12:01:18;13.80;99.30
19389;DHT22;9830;41.876;23.474;2023-03-11T12:04:19;14.00;98.70
19389;DHT22;9830;41.876;23.474;2023-03-11T12:07:13;14.20;96.10
19389;DHT22;9830;41.876;23.474;2023-03-11T12:10:14;14.50;91.70
19389;DHT22;9830;41.876;23.474;2023-03-11T12:12:44;14.60;90.50
19389;DHT22;9830;41.876;23.474;2023-03-11T12:17:53;15.10;85.40
19389;DHT22;9830;41.876;23.474;2023-03-11T12:20:54;14.80;83.50
19389;DHT22;9830;41.876;23.474;2023-03-11T12:28:44;13.70;93.30
19389;DHT22;9830;41.876;23.474;2023-03-11T12:31:12;13.20;96.60
19389;DHT22;9830;41.876;23.474;2023-03-11T12:33:39;13.00;94.70
19389;DHT22;9830;41.876;23.474;2023-03-11T12:36:07;12.80;95.90
19389;DHT22;9830;41.876;23.474;2023-03-11T12:38:46;12.80;97.20
19389;DHT22;9830;41.876;23.474;2023-03-11T12:43:59;13.10;99.90
19389;DHT22;9830;41.876;23.474;2023-03-11T12:49:37;13.40;98.20
19389;DHT22;9830;41.876;23.474;2023-03-11T12:54:41;13.80;92.70
19389;DHT22;9830;41.876;23.474;2023-03-11T12:57:28;13.90;90.80
19389;DHT22;9830;41.876;23.474;2023-03-11T13:02:57;14.30;81.10
19389;DHT22;9830;41.876;23.474;2023-03-11T13:08:20;13.80;80.20
19389;DHT22;9830;41.876;23.474;2023-03-11T13:10:51;13.80;82.80
19389;DHT22;9830;41.876;23.474;2023-03-11T13:18:48;13.90;80.00
19389;DHT22;9830;41.876;23.474;2023-03-11T13:33:00;14.20;72.50
19389;DHT22;9830;41.876;23.474;2023-03-11T13:41:02;14.30;66.80
19389;DHT22;9830;41.876;23.474;2023-03-11T13:43:43;14.20;65.70
19389;DHT22;9830;41.876;23.474;2023-03-11T13:46:29;14.10;71.50
19389;DHT22;9830;41.876;23.474;2023-03-11T13:49:06;13.90;70.00
19389;DHT22;9830;41.876;23.474;2023-03-11T13:51:44;13.90;72.70
19389;DHT22;9830;41.876;23.474;2023-03-11T13:56:50;14.00;67.60
19389;DHT22;9830;41.876;23.474;2023-03-11T13:59:29;14.10;69.90
19389;DHT22;9830;41.876;23.474;2023-03-11T14:02:17;13.90;65.20
19389;DHT22;9830;41.876;23.474;2023-03-11T14:04:51;13.90;71.60
19389;DHT22;9830;41.876;23.474;2023-03-11T14:07:27;13.80;70.10
19389;DHT22;9830;41.876;23.474;2023-03-11T14:12:40;13.80;71.40
19389;DHT22;9830;41.876;23.474;2023-03-11T14:15:07;13.80;69.40
19389;DHT22;9830;41.876;23.474;2023-03-11T14:17:34;13.60;67.20
19389;DHT22;9830;41.876;23.474;2023-03-11T14:20:13;13.50;69.20
19389;DHT22;9830;41.876;23.474;2023-03-11T14:22:44;13.30;70.20
19389;DHT22;9830;41.876;23.474;2023-03-11T14:25:17;13.40;67.80
19389;DHT22;9830;41.876;23.474;2023-03-11T14:27:53;13.40;67.00
19389;DHT22;9830;41.876;23.474;2023-03-11T14:30:23;13.40;69.80
19389;DHT22;9830;41.876;23.474;2023-03-11T14:33:00;13.20;69.30
19389;DHT22;9830;41.876;23.474;2023-03-11T14:35:26;13.10;68.20
19389;DHT22;9830;41.876;23.474;2023-03-11T14:37:52;12.90;73.50
19389;DHT22;9830;41.876;23.474;2023-03-11T14:40:25;12.90;72.70
19389;DHT22;9830;41.876;23.474;2023-03-11T14:42:53;12.90;74.40
19389;DHT22;9830;41.876;23.474;2023-03-11T14:45:22;12.90;73.70
19389;DHT22;9830;41.876;23.474;2023-03-11T14:50:17;12.60;75.60
19389;DHT22;9830;41.876;23.474;2023-03-11T14:52:57;12.50;75.40
19389;DHT22;9830;41.876;23.474;2023-03-11T14:55:58;12.40;78.50
19389;DHT22;9830;41.876;23.474;2023-03-11T14:58:42;12.40;80.40
19389;DHT22;9830;41.876;23.474;2023-03-11T15:01:25;12.30;85.70
19389;DHT22;9830;41.876;23.474;2023-03-11T15:04:04;12.20;92.90
19389;DHT22;9830;41.876;23.474;2023-03-11T15:06:31;12.10;94.50
19389;DHT22;9830;41.876;23.474;2023-03-11T15:09:05;11.90;90.30
19389;DHT22;9830;41.876;23.474;2023-03-11T15:11:47;11.60;97.20
19389;DHT22;9830;41.876;23.474;2023-03-11T15:16:45;11.10;99.00
19389;DHT22;9830;41.876;23.474;2023-03-11T15:21:46;10.80;99.80
19389;DHT22;9830;41.876;23.474;2023-03-11T15:24:18;10.90;99.90
19389;DHT22;9830;41.876;23.474;2023-03-11T15:26:53;10.80;99.90
19389;DHT22;9830;41.876;23.474;2023-03-11T15:29:19;10.70;99.90
19389;DHT22;9830;41.876;23.474;2023-03-11T15:31:46;10.50;99.90
19389;DHT22;9830;41.876;23.474;2023-03-11T15:37:14;10.50;99.90
19389;DHT22;9830;41.876;23.474;2023-03-11T15:39:43;10.60;99.90
19389;DHT22;9830;41.876;23.474;2023-03-11T15:42:26;10.50;99.90
19389;DHT22;9830;41.876;23.474;2023-03-11T15:47:21;10.40;99.90
19389;DHT22;9830;41.876;23.474;2023-03-11T15:49:47;10.50;99.90
19389;DHT22;9830;41.876;23.474;2023-03-11T15:52:13;10.50;99.90
19389;DHT22;9830;41.876;23.474;2023-03-11T15:54:39;10.50;99.90
19389;DHT22;9830;41.876;23.474;2023-03-11T15:57:11;10.50;99.90
19389;DHT22;9830;41.876;23.474;2023-03-11T15:59:40;10.50;99.90
19389;DHT22;9830;41.876;23.474;2023-03-11T16:02:22;10.40;99.90
19389;DHT22;9830;41.876;23.474;2023-03-11T16:04:49;10.30;99.90
19389;DHT22;9830;41.876;23.474;2023-03-11T16:07:15;10.30;99.90
19389;DHT22;9830;41.876;23.474;2023-03-11T16:09:40;10.20;99.90
19389;DHT22;9830;41.876;23.474;2023-03-11T16:12:20;10.20;99.90
19389;DHT22;9830;41.876;23.474;2023-03-11T16:14:47;10.20;99.90
19389;DHT22;9830;41.876;23.474;2023-03-11T16:17:13;10.20;99.90
19389;DHT22;9830;41.876;23.474;2023-03-11T16:19:44;10.10;99.90
19389;DHT22;9830;41.876;23.474;2023-03-11T16:22:19;10.10;99.90
19389;DHT22;9830;41.876;23.474;2023-03-11T16:24:48;10.00;99.90
19389;DHT22;9830;41.876;23.474;2023-03-11T16:27:15;9.90;99.90
19389;DHT22;9830;41.876;23.474;2023-03-11T16:29:42;9.90;99.90
19389;DHT22;9830;41.876;23.474;2023-03-11T16:32:09;9.90;99.90
19389;DHT22;9830;41.876;23.474;2023-03-11T16:34:39;9.80;99.90
19389;DHT22;9830;41.876;23.474;2023-03-11T16:37:06;9.70;99.90
19389;DHT22;9830;41.876;23.474;2023-03-11T16:39:32;9.70;99.90
19389;DHT22;9830;41.876;23.474;2023-03-11T16:41:58;9.60;99.90
19389;DHT22;9830;41.876;23.474;2023-03-11T16:44:24;9.60;99.90
19389;DHT22;9830;41.876;23.474;2023-03-11T16:46:50;9.50;99.90
19389;DHT22;9830;41.876;23.474;2023-03-11T16:49:16;9.40;99.90
19389;DHT22;9830;41.876;23.474;2023-03-11T16:51:41;9.30;99.90
19389;DHT22;9830;41.876;23.474;2023-03-11T16:54:07;9.10;99.90
19389;DHT22;9830;41.876;23.474;2023-03-11T16:56:34;9.00;99.90
19389;DHT22;9830;41.876;23.474;2023-03-11T16:59:00;8.90;99.90
19389;DHT22;9830;41.876;23.474;2023-03-11T17:01:26;8.80;99.90
19389;DHT22;9830;41.876;23.474;2023-03-11T17:03:52;8.70;99.90
19389;DHT22;9830;41.876;23.474;2023-03-11T17:06:19;8.70;99.90
19389;DHT22;9830;41.876;23.474;2023-03-11T17:08:45;8.60;99.90
19389;DHT22;9830;41.876;23.474;2023-03-11T17:11:23;8.60;99.90
19389;DHT22;9830;41.876;23.474;2023-03-11T17:13:53;8.60;99.90
19389;DHT22;9830;41.876;23.474;2023-03-11T17:16:19;8.60;99.90
19389;DHT22;9830;41.876;23.474;2023-03-11T17:18:45;8.60;99.90
19389;DHT22;9830;41.876;23.474;2023-03-11T17:21:13;8.70;99.90
19389;DHT22;9830;41.876;23.474;2023-03-11T17:23:39;8.70;99.90
19389;DHT22;9830;41.876;23.474;2023-03-11T17:26:13;8.70;99.90
19389;DHT22;9830;41.876;23.474;2023-03-11T17:28:39;8.70;99.90
19389;DHT22;9830;41.876;23.474;2023-03-11T17:31:15;8.80;99.90
19389;DHT22;9830;41.876;23.474;2023-03-11T17:33:41;8.80;99.90
19389;DHT22;9830;41.876;23.474;2023-03-11T17:36:10;8.90;99.90
19389;DHT22;9830;41.876;23.474;2023-03-11T17:38:37;9.00;99.90